x

Cape Elizabeth- 45nm Nw Of Aberdeen, Wa (46041) Wave Buoy

5:50pm - Sat 24th Jun 2017 All times are PDT. -7 hours from GMT.

  • Sig Wave height 2.3ft
  • Swell Direction
  • Peak Period 16s
  • Average Period 6s
  • Wind
    11mph, 13mph gusts
  • Sea Temp 60°f
  • 空気 Temp 63°f
  • Sea Pressure 1016mb
  • Cape Elizabeth- 45nm Nw Of Aberdeen, Wa
  • Cape Elizabeth- 45nm Nw Of Aberdeen, Wa

More Historic Weather Station data

Upgrade to MSW Pro to gain access to the past 30 days of data for over 8000 Wavebouys and Weather Stations around the globe.

Join Pro

Comparision Forecast

View Surf forecast
   
Sat 06/24 5:50pm 2.5ft 16s 6s 11 13 mph 1016mb 60f 63f
4:50pm 2.5ft 16s 6s 11 13 mph 1016.6mb 60f 63f
3:50pm 2.5ft 16s 6s 9 11 mph 1017.2mb 60f 63f
2:50pm 2.5ft 7s 6s 9 11 mph 1017.6mb 61f 64f
1:50pm 2.5ft 16s 6s 7 7 mph 1018.2mb 62f 64f
12:50pm 2.5ft 6s 5s 7 7 mph 1018.9mb 62f 63f
11:50am 3ft 16s 6s 4 4 mph 1019.3mb 60f 61f
10:50am 3ft 16s 5s 2 2 mph 1019.6mb 59f 60f
9:50am 3ft 6s 5s 2 2 mph 1019.8mb 57f 59f
8:50am 3ft 6s 6s 4 4 mph 1019.8mb 56f 57f
7:50am 3ft 17s 6s 4 4 mph 1020.1mb 56f 57f
6:50am 3ft 6s 6s 4 4 mph 1020mb 56f 58f
5:50am 3ft 6s 6s 4 7 mph 1019.7mb 55f 57f
4:50am 3ft 17s 5s 4 4 mph 1019.6mb 56f 56f
3:50am 3ft 7s 5s 4 7 mph 1019.6mb 56f 56f
2:50am 3.5ft 7s 5s 7 9 mph 1019.5mb 56f 57f
1:50am 3.5ft 17s 5s 7 9 mph 1019.9mb 57f 58f
12:50am 3.5ft 6s 5s 11 13 mph 1019.7mb 56f 59f
Fri 06/23 11:50pm 4.5ft 8s 5s 11 13 mph 1019.7mb 57f 60f
10:50pm 4.5ft 6s 5s 13 16 mph 1019.7mb 57f 60f
9:50pm 4.5ft 7s 5s 16 18 mph 1019.8mb 58f 61f
8:50pm 4.5ft 7s 5s 18 22 mph 1019.7mb 58f 61f
7:50pm 4.5ft 7s 5s 18 20 mph 1020.2mb 58f 60f
6:50pm 4.5ft 7s 5s 20 22 mph 1020.5mb 59f 60f
5:50pm 4ft 7s 5s 18 20 mph 1021mb 60f 60f
4:50pm 4ft 7s 6s 16 18 mph 1021.6mb 60f 60f
3:50pm 3.5ft 6s 6s 11 13 mph 1021.9mb 60f 60f
2:50pm 4ft 7s 6s 13 13 mph 1022.3mb 60f 59f
1:50pm 3.5ft 8s 6s 9 11 mph 1022.6mb 60f 59f
12:50pm 4ft 7s 6s 9 11 mph 1022.6mb 59f 57f
11:50am 4ft 7s 6s 9 9 mph 1022.8mb 59f 56f
10:50am 4ft 8s 6s 4 7 mph 1023.2mb 59f 55f
9:50am 4.5ft 7s 5s 7 9 mph 1023.5mb 58f 56f
8:50am 4.5ft 7s 6s 7 7 mph 1023.6mb 58f 55f
7:50am 5ft 8s 6s 7 11 mph 1023.6mb 57f 56f
6:50am 4.5ft 8s 5s 11 13 mph 1023.7mb 57f 56f
5:50am 5ft 6s 6s 11 13 mph 1023.6mb 57f 56f
4:50am 5ft 7s 6s 13 13 mph 1023.4mb 57f 56f
3:50am 5.5ft 6s 5s 16 18 mph 1023.6mb 57f 56f
2:50am 5.5ft 8s 5s 18 20 mph 1023.6mb 57f 56f
1:50am 6ft 8s 6s 18 20 mph 1023.4mb 58f 56f
12:50am 5.5ft 8s 5s 18 20 mph 1023.7mb 58f 57f
Thu 06/22 11:50pm 6ft 7s 5s 18 22 mph 1024mb 58f 57f
10:50pm 6ft 9s 5s 20 25 mph 1024.2mb 59f 57f
9:50pm 6ft 9s 5s 20 25 mph 1023.9mb 59f 57f
8:50pm 6ft 9s 5s 25 27 mph 1024.1mb 58f 57f
7:50pm 5.5ft 10s 5s 22 25 mph 1024.2mb 59f 57f
6:50pm 5ft 8s 5s 22 27 mph 1024.5mb 59f 57f
5:50pm 5ft 10s  -  22 25 mph 1024.6mb 59f 57f
4:50pm 5.5ft 10s 5s 20 25 mph 1024.8mb 59f 57f
3:50pm 6ft 10s 6s 20 25 mph 1025.2mb 60f 57f
2:50pm 6ft 8s 6s 18 20 mph 1025.7mb 60f 57f
1:50pm 7ft 8s 6s 18 20 mph 1026.4mb 59f 57f
12:50pm 7ft 8s 6s 13 16 mph 1026.3mb 59f 56f
11:50am 7ft 7s 6s 9 11 mph 1026.4mb 58f 56f
10:50am 7ft 8s 6s 9 11 mph 1026.9mb 58f 56f
9:50am 8ft 8s 7s 7 9 mph 1026.9mb 58f 56f
8:50am 7.5ft 8s 7s 7 11 mph 1026.8mb 57f 56f
7:50am 7.5ft 9s 7s 9 13 mph 1026.7mb 57f 55f
6:50am 6ft 10s 7s 7 9 mph 1026.6mb 57f 55f
5:50am 6ft 8s 7s 11 13 mph 1026.5mb 58f 55f
4:50am 6ft 8s 7s 11 13 mph 1026.4mb 58f 55f
3:50am 6.5ft 10s 7s 11 16 mph 1026.6mb 59f 56f
2:50am 6ft 10s 6s 13 16 mph 1026.5mb 59f 56f
1:50am 6.5ft 10s 6s 18 20 mph 1026.4mb 59f 56f
12:50am 6ft 7s 6s 18 22 mph 1026.5mb 59f 56f
Wed 06/21 11:50pm 7ft 10s 6s 18 22 mph 1026.3mb 59f 56f
10:50pm 6.5ft 11s 6s 20 25 mph 1026.5mb 59f 56f
9:50pm 6.5ft 10s 6s 20 25 mph 1026.3mb 59f 56f
8:50pm 7.5ft 10s 6s 22 25 mph 1026.4mb 59f 56f
7:50pm 7ft 9s 6s 22 25 mph 1026.4mb 58f 56f
6:50pm 6.5ft 7s 6s 20 25 mph 1026.7mb 59f 56f
5:50pm 6.5ft 6s 6s 20 25 mph 1027.1mb 59f 56f
4:50pm 5.5ft 8s 5s 20 22 mph 1027.5mb 60f 56f
3:50pm 5.5ft 9s 6s 20 22 mph 1027.7mb 60f 56f
2:50pm 5ft 8s 5s 18 20 mph 1027.9mb 59f 56f
1:50pm 5ft 7s 5s 16 20 mph 1028mb 59f 56f
12:50pm 5ft 6s 5s 18 20 mph 1028.1mb 59f 56f
11:50am 5.5ft 7s 5s 16 20 mph 1028.1mb 59f 56f
10:50am 5ft 7s 6s 18 22 mph 1028mb 59f 56f
9:50am 5ft 6s 5s 16 20 mph 1027.8mb 59f 56f
8:50am 5ft 7s 5s 16 20 mph 1027.7mb 59f 56f
7:50am 5ft 6s 5s 18 22 mph 1027mb 59f 56f
6:50am 5.5ft 6s 5s 18 22 mph 1027mb 59f 56f
5:50am 6ft 6s 5s 18 22 mph 1026.8mb 59f 56f
4:50am 5ft 6s 5s 20 22 mph 1026.5mb 59f 56f
3:50am 6ft 6s 5s 20 25 mph 1026.5mb 59f 56f
2:50am 6ft 6s 5s 20 25 mph 1025.9mb 59f 56f